Solon, ME (04979)

7:53 PM EST on March 02, 2015 (GMT -0500)
Camberly Gardens Nursery | Change Station
CLOSE
Current Station
Personal Weather Station
Location: Embden, ME
Elevation: 413 ft
Nearby Weather Stations

Elev 413 ft 44.88 °N, 69.97 °W | Updated 6 minutes ago

Mostly Cloudy
Mostly Cloudy
23.4 °F
Feels Like 18 °F
N
4.0
Wind Variable Wind from NNW
Gusts 17.0 mph

Today
High -- | Low -- °F
--% Chance of Precip.
Yesterday
High -- | Low -- °F
Precip. -- in
6:15 AM 5:27 PM
Waxing Gibbous, 93% visible
Pressure 29.96 in
Visibility -9999.0 miles
Clouds Few 4600 ft
Windchill 18 °F
Dew Point 10 °F
Humidity 56%
Rainfall 0.02 in
Snow Depth Not available.
UV 0 out of 12
Pollen .30 out of 12
Air Quality Not available.
Flu Activity Not available.
METAR KWVL 030035Z 29013G18KT FEW046 M04/M14 A2996 RMK AO1

More Conditions Fewer Conditions

Pressure 29.96 in
Visibility -9999.0 miles
Clouds Few 4600 ft
Windchill 18 °F
Dew Point 10 °F
Humidity 56%
Rainfall 0.02 in
Snow Depth Not available.
UV 0 out of 12
Pollen .30 out of 12
Air Quality Not available.
Flu Activity Not available.
METAR KWVL 030035Z 29013G18KT FEW046 M04/M14 A2996 RMK AO1

More Conditions Fewer Conditions

10-Day Weather Forecast

Almanac

Astronomy

Mar. 02, 2015 Rise Set
Actual Time
Civil Twilight
Nautical Twilight
Astronomical Twilight
Moon
Length of Visible Light
Length of Day
Tomorrow will be .
, % of the Moon is Illuminated

Today's Extremes

State Highs State Lows

Community

WunderPhotos

Upload Photos

1,802,009 photos uploaded!

WunderBlogs® & News

Nearby

Air Quality

  Air Quality AQ Index Pollutant
Not available.

Snow Depth

Station Depth Elevation

Earthquake Activity

City Distance Mag. Time & Date
Minimum magnitude displayed is 2.5.

Coastal Water Temperatures

Place Temperature

Nearby Weather Stations